createdAt,value
2023-02-22T00:00:09.823Z,100572.18
2023-02-22T00:03:54.900Z,100574.17
2023-02-22T00:07:23.929Z,100577.93
2023-02-22T00:10:52.850Z,100578.58
2023-02-22T00:14:21.851Z,100576.85
2023-02-22T00:17:49.219Z,100582.48
2023-02-22T00:21:18.152Z,100582.13
2023-02-22T00:24:47.054Z,100583.14
2023-02-22T00:28:15.500Z,100587.98
2023-02-22T00:31:42.413Z,100588.59
2023-02-22T00:35:11.048Z,100587.47
2023-02-22T00:38:37.592Z,100593.05
2023-02-22T00:42:05.890Z,100596.75
2023-02-22T00:45:34.386Z,100597.66
2023-02-22T00:49:06.476Z,100603.55
2023-02-22T00:52:33.067Z,100608.73
2023-02-22T00:56:02.290Z,100618.63
2023-02-22T00:59:31.419Z,100619.61
2023-02-22T01:03:01.556Z,100617.56
2023-02-22T01:06:29.563Z,100622.02
2023-02-22T01:09:59.357Z,100625.73
2023-02-22T01:13:26.236Z,100621.77
2023-02-22T01:16:54.679Z,100623.41
2023-02-22T01:20:23.101Z,100625.74
2023-02-22T01:23:50.546Z,100629.64
2023-02-22T01:27:18.103Z,100628.23
2023-02-22T01:30:45.114Z,100631.43
2023-02-22T01:34:15.506Z,100635.09
2023-02-22T01:37:43.635Z,100634.47
2023-02-22T01:41:10.788Z,100631.63
2023-02-22T01:44:40.436Z,100633.58
2023-02-22T01:48:13.372Z,100641.70
2023-02-22T01:51:44.287Z,100644.89
2023-02-22T01:55:11.274Z,100642.14
2023-02-22T01:58:42.825Z,100642.98
2023-02-22T02:02:09.971Z,100645.02
2023-02-22T02:05:39.273Z,100644.50
2023-02-22T02:09:12.259Z,100642.29
2023-02-22T02:12:39.307Z,100646.89
2023-02-22T02:16:06.396Z,100649.94
2023-02-22T02:19:45.165Z,100651.43
2023-02-22T02:23:35.849Z,100651.64
2023-02-22T02:27:24.190Z,100650.52
2023-02-22T02:31:36.234Z,100658.14
2023-02-22T02:35:11.624Z,100662.80
2023-02-22T02:38:45.992Z,100660.39
2023-02-22T02:42:19.265Z,100662.80
2023-02-22T02:45:51.041Z,100665.38
2023-02-22T02:49:23.259Z,100673.83
2023-02-22T02:52:54.521Z,100683.09
2023-02-22T02:56:23.598Z,100678.54
2023-02-22T02:59:51.608Z,100682.66
2023-02-22T03:03:38.965Z,100688.50
2023-02-22T03:07:30.072Z,100689.20
2023-02-22T03:11:15.650Z,100688.86
2023-02-22T03:14:56.048Z,100690.41
2023-02-22T03:18:30.726Z,100694.36
2023-02-22T03:22:04.920Z,100699.00
2023-02-22T03:25:40.408Z,100701.43
2023-02-22T03:29:12.198Z,100700.95
2023-02-22T03:32:42.569Z,100708.19
2023-02-22T03:36:15.715Z,100710.27
2023-02-22T03:39:44.816Z,100717.49
2023-02-22T03:43:15.910Z,100721.08
2023-02-22T03:46:44.552Z,100725.48
2023-02-22T03:50:16.606Z,100726.16
2023-02-22T03:53:46.090Z,100727.15
2023-02-22T03:57:17.597Z,100728.46
2023-02-22T04:00:44.910Z,100730.48
2023-02-22T04:04:11.446Z,100732.16
2023-02-22T04:11:42.226Z,100735.92
2023-02-22T04:15:14.122Z,100739.55
2023-02-22T04:18:42.277Z,100741.45
2023-02-22T04:22:09.159Z,100743.55
2023-02-22T04:25:35.903Z,100744.63
2023-02-22T04:29:10.571Z,100745.36
2023-02-22T04:32:39.681Z,100745.24
2023-02-22T04:36:08.939Z,100745.47
2023-02-22T04:39:36.429Z,100750.13
2023-02-22T04:43:03.653Z,100748.60
2023-02-22T04:46:31.704Z,100751.72
2023-02-22T04:50:00.576Z,100757.05
2023-02-22T04:53:27.675Z,100762.05
2023-02-22T04:56:55.600Z,100769.08
2023-02-22T05:00:26.412Z,100761.92
2023-02-22T05:03:59.570Z,100769.77
2023-02-22T05:07:26.542Z,100768.38
2023-02-22T05:10:52.774Z,100763.77
2023-02-22T05:14:19.760Z,100764.95
2023-02-22T05:17:46.767Z,100765.27
2023-02-22T05:21:13.823Z,100765.08
2023-02-22T05:24:44.352Z,100764.23
2023-02-22T05:28:15.823Z,100771.42
2023-02-22T05:31:42.746Z,100772.66
2023-02-22T05:35:10.348Z,100774.56
2023-02-22T05:38:43.471Z,100780.75
2023-02-22T05:42:10.720Z,100788.30
2023-02-22T05:45:37.646Z,100794.15
2023-02-22T05:49:05.709Z,100800.14
2023-02-22T05:52:32.113Z,100810.60
2023-02-22T05:55:59.753Z,100815.92
2023-02-22T05:59:28.121Z,100815.10
2023-02-22T06:03:00.164Z,100820.91
2023-02-22T06:06:26.715Z,100820.77
2023-02-22T06:09:54.372Z,100823.84
2023-02-22T06:13:20.658Z,100825.20
2023-02-22T06:16:53.204Z,100826.06
2023-02-22T06:20:22.926Z,100832.55
2023-02-22T06:23:50.184Z,100833.05
2023-02-22T06:27:17.026Z,100836.81
2023-02-22T06:30:52.523Z,100839.70
2023-02-22T06:34:22.055Z,100843.27
2023-02-22T06:37:49.176Z,100854.35
2023-02-22T06:41:16.479Z,100853.49
2023-02-22T06:44:44.123Z,100851.09
2023-02-22T06:48:10.958Z,100855.19
2023-02-22T06:51:40.488Z,100864.08
2023-02-22T06:55:07.873Z,100869.20
2023-02-22T06:58:34.503Z,100864.58
2023-02-22T07:02:01.581Z,100866.12
2023-02-22T07:05:29.687Z,100873.13
2023-02-22T07:08:56.632Z,100877.39
2023-02-22T07:12:24.062Z,100880.83
2023-02-22T07:15:50.950Z,100880.14
2023-02-22T07:19:17.941Z,100881.48
2023-02-22T07:22:44.688Z,100884.05
2023-02-22T07:26:12.453Z,100886.08
2023-02-22T07:29:40.551Z,100887.61
2023-02-22T07:33:09.206Z,100889.13
2023-02-22T07:36:36.395Z,100890.64
2023-02-22T07:40:04.311Z,100896.75
2023-02-22T07:43:32.360Z,100901.67
2023-02-22T07:46:59.683Z,100904.85
2023-02-22T07:50:30.272Z,100903.73
2023-02-22T07:53:56.931Z,100903.83
2023-02-22T07:57:24.265Z,100909.01
2023-02-22T08:00:51.290Z,100912.00
2023-02-22T08:04:18.561Z,100915.16
2023-02-22T08:07:45.627Z,100912.01
2023-02-22T08:11:13.353Z,100911.96
2023-02-22T08:14:40.726Z,100914.52
2023-02-22T08:18:11.730Z,100918.09
2023-02-22T08:21:38.801Z,100918.60
2023-02-22T08:25:06.724Z,100916.73
2023-02-22T08:28:36.577Z,100917.95
2023-02-22T08:32:03.893Z,100912.99
2023-02-22T08:35:32.127Z,100910.64
2023-02-22T08:38:59.893Z,100908.10
2023-02-22T08:42:26.843Z,100906.05
2023-02-22T08:45:57.182Z,100914.45
2023-02-22T08:49:24.991Z,100914.95
2023-02-22T08:52:53.485Z,100913.58
2023-02-22T08:56:23.567Z,100913.22
2023-02-22T08:59:51.138Z,100913.55
2023-02-22T09:03:18.395Z,100911.80
2023-02-22T09:06:48.624Z,100911.94
2023-02-22T09:10:17.671Z,100913.80
2023-02-22T09:13:44.540Z,100920.61
2023-02-22T09:17:11.440Z,100924.38
2023-02-22T09:20:39.083Z,100923.02
2023-02-22T09:24:08.801Z,100930.67
2023-02-22T09:27:35.911Z,100933.17
2023-02-22T09:31:03.018Z,100939.96
2023-02-22T09:34:30.796Z,100940.27
2023-02-22T09:38:00.289Z,100938.92
2023-02-22T09:41:36.137Z,100937.36
2023-02-22T09:45:13.097Z,100934.91
2023-02-22T09:48:51.691Z,100934.35
2023-02-22T09:52:25.333Z,100944.25
2023-02-22T09:55:52.781Z,100944.36
2023-02-22T09:59:26.407Z,100939.97
2023-02-22T10:02:55.999Z,100944.84
2023-02-22T10:06:26.350Z,100947.55
2023-02-22T10:09:56.715Z,100944.34
2023-02-22T10:13:35.137Z,100943.85
2023-02-22T10:17:12.410Z,100948.23
2023-02-22T10:20:52.872Z,100946.20
2023-02-22T10:24:39.912Z,100945.08
2023-02-22T10:28:15.185Z,100955.02
2023-02-22T10:31:46.308Z,100953.89
2023-02-22T10:35:23.644Z,100954.54
2023-02-22T10:38:58.492Z,100956.18
2023-02-22T10:42:29.751Z,100959.48
2023-02-22T10:46:01.546Z,100958.85
2023-02-22T10:49:35.098Z,100954.77
2023-02-22T10:53:02.170Z,100953.33
2023-02-22T10:56:31.091Z,100956.95
2023-02-22T11:00:19.983Z,100954.65
2023-02-22T11:03:57.425Z,100947.96
2023-02-22T11:07:30.218Z,100947.66
2023-02-22T11:10:59.015Z,100947.70
2023-02-22T11:14:33.424Z,100945.30
2023-02-22T11:18:02.155Z,100943.24
2023-02-22T11:21:32.357Z,100946.64
2023-02-22T11:25:04.464Z,100949.59
2023-02-22T11:28:33.253Z,100946.38
2023-02-22T11:32:01.080Z,100941.08
2023-02-22T11:35:39.109Z,100946.06
2023-02-22T11:39:06.912Z,100948.07
2023-02-22T11:42:34.235Z,100949.98
2023-02-22T11:46:08.637Z,100944.65
2023-02-22T11:49:39.475Z,100939.93
2023-02-22T11:53:23.444Z,100936.58
2023-02-22T11:56:53.097Z,100934.48
2023-02-22T12:00:25.965Z,100928.96
2023-02-22T12:04:33.409Z,100926.79
2023-02-22T12:08:19.443Z,100925.54
2023-02-22T12:12:00.897Z,100929.34
2023-02-22T12:15:33.749Z,100934.68
2023-02-22T12:19:18.008Z,100930.88
2023-02-22T12:22:55.031Z,100935.80
2023-02-22T12:26:27.555Z,100933.34
2023-02-22T12:30:01.928Z,100936.66
2023-02-22T12:33:35.078Z,100938.30
2023-02-22T12:37:13.470Z,100946.95
2023-02-22T12:40:50.193Z,100950.97
2023-02-22T12:44:23.224Z,100948.02
2023-02-22T12:47:52.891Z,100944.83
2023-02-22T12:51:29.427Z,100950.98
2023-02-22T12:55:02.008Z,100950.19
2023-02-22T12:58:36.701Z,100957.59
2023-02-22T13:02:14.429Z,100962.04
2023-02-22T13:05:43.518Z,100956.14
2023-02-22T13:09:28.965Z,100957.08
2023-02-22T13:13:05.076Z,100953.66
2023-02-22T13:16:44.001Z,100951.20
2023-02-22T13:20:19.814Z,100946.98
2023-02-22T13:23:54.857Z,100946.90
2023-02-22T13:27:26.347Z,100944.55
2023-02-22T13:31:06.335Z,100947.59
2023-02-22T13:34:50.512Z,100947.10
2023-02-22T13:39:01.176Z,100947.91
2023-02-22T13:42:50.294Z,100943.88
2023-02-22T13:46:41.095Z,100947.13
2023-02-22T13:50:45.462Z,100948.64
2023-02-22T13:54:17.531Z,100945.23
2023-02-22T13:57:49.062Z,100949.68
2023-02-22T14:01:44.170Z,100948.05
2023-02-22T14:05:39.258Z,100949.70
2023-02-22T14:09:11.274Z,100946.37
2023-02-22T14:12:53.462Z,100946.83
2023-02-22T14:16:29.955Z,100952.46
2023-02-22T14:20:35.159Z,100957.45
2023-02-22T14:24:11.830Z,100955.09
2023-02-22T14:27:45.595Z,100954.96
2023-02-22T14:31:33.324Z,100948.30
2023-02-22T14:35:02.489Z,100947.80
2023-02-22T14:38:32.335Z,100950.04
2023-02-22T14:42:12.723Z,100948.52
2023-02-22T14:45:47.215Z,100947.77
2023-02-22T14:49:19.132Z,100944.67
2023-02-22T14:52:47.897Z,100944.10
2023-02-22T14:56:23.218Z,100949.60
2023-02-22T15:00:08.323Z,100949.66
2023-02-22T15:03:37.643Z,100951.21
2023-02-22T15:07:27.645Z,100958.98
2023-02-22T15:10:56.454Z,100957.92
2023-02-22T15:14:27.061Z,100955.77
2023-02-22T15:17:58.847Z,100957.69
2023-02-22T15:21:29.476Z,100957.96
2023-02-22T15:25:03.598Z,100962.91
2023-02-22T15:28:32.477Z,100960.95
2023-02-22T15:31:59.459Z,100966.48
2023-02-22T15:35:30.060Z,100967.23
2023-02-22T15:38:59.676Z,100965.40
2023-02-22T15:42:28.339Z,100962.70
2023-02-22T15:45:57.482Z,100967.75
2023-02-22T15:49:26.470Z,100966.45
2023-02-22T15:52:59.395Z,100968.98
2023-02-22T15:56:31.362Z,100969.38
2023-02-22T15:59:59.979Z,100969.14
2023-02-22T16:03:33.371Z,100974.88
2023-02-22T16:07:17.305Z,100976.14
2023-02-22T16:10:49.301Z,100978.02
2023-02-22T16:14:31.297Z,100979.08
2023-02-22T16:18:02.405Z,100985.25
2023-02-22T16:21:50.906Z,100986.75
2023-02-22T16:25:33.296Z,100987.88
2023-02-22T16:29:03.289Z,100990.39
2023-02-22T16:32:30.843Z,100997.84
2023-02-22T16:35:58.003Z,100999.64
2023-02-22T16:39:28.420Z,100995.11
2023-02-22T16:42:56.644Z,100994.17
2023-02-22T16:46:23.872Z,100997.46
2023-02-22T16:49:55.910Z,101002.50
2023-02-22T16:53:25.423Z,101008.20
2023-02-22T16:56:52.833Z,101013.04
2023-02-22T17:00:31.669Z,101011.03
2023-02-22T17:03:59.449Z,101008.81
2023-02-22T17:07:30.138Z,101010.41
2023-02-22T17:11:04.854Z,101019.73
2023-02-22T17:14:36.584Z,101021.85
2023-02-22T17:18:06.133Z,101021.38
2023-02-22T17:21:33.059Z,101018.17
2023-02-22T17:24:59.626Z,101024.55
2023-02-22T17:28:28.647Z,101030.09
2023-02-22T17:31:56.995Z,101028.73
2023-02-22T17:35:27.490Z,101028.95
2023-02-22T17:38:57.312Z,101026.92
2023-02-22T17:42:24.226Z,101023.84
2023-02-22T17:45:51.469Z,101025.89
2023-02-22T17:49:18.246Z,101025.03
2023-02-22T17:52:46.094Z,101016.64
2023-02-22T17:56:16.865Z,101019.40
2023-02-22T17:59:43.876Z,101019.25
2023-02-22T18:03:13.043Z,101016.70
2023-02-22T18:06:40.384Z,101013.13
2023-02-22T18:10:12.255Z,101008.89
2023-02-22T18:13:39.235Z,101007.23
2023-02-22T18:17:07.241Z,101006.22
2023-02-22T18:20:39.329Z,101004.88
2023-02-22T18:24:07.092Z,101006.30
2023-02-22T18:27:33.949Z,101012.50
2023-02-22T18:31:01.418Z,101007.21
2023-02-22T18:34:31.197Z,101007.75
2023-02-22T18:37:58.496Z,101009.13
2023-02-22T18:41:28.839Z,101006.09
2023-02-22T18:45:03.533Z,101001.70
2023-02-22T18:48:33.433Z,101008.91
2023-02-22T18:52:01.549Z,101014.43
2023-02-22T18:55:33.941Z,101007.42
2023-02-22T18:59:05.894Z,101009.31
2023-02-22T19:02:34.710Z,101011.56
2023-02-22T19:06:09.950Z,101011.23
2023-02-22T19:09:40.198Z,101007.45
2023-02-22T19:13:13.036Z,101013.28
2023-02-22T19:16:49.997Z,101015.52
2023-02-22T19:20:20.728Z,101012.94
2023-02-22T19:23:50.938Z,101014.48
2023-02-22T19:27:19.415Z,101008.67
2023-02-22T19:30:56.082Z,101004.94
2023-02-22T19:34:28.345Z,101008.88
2023-02-22T19:38:00.922Z,101004.10
2023-02-22T19:41:35.404Z,101002.73
2023-02-22T19:45:03.935Z,100997.92
2023-02-22T19:48:36.150Z,100998.28
2023-02-22T19:52:13.134Z,100996.73
2023-02-22T19:55:42.927Z,100993.87
2023-02-22T19:59:14.831Z,100986.85
2023-02-22T20:02:53.475Z,100985.85
2023-02-22T20:06:26.183Z,100985.52
2023-02-22T20:09:57.094Z,100983.13
2023-02-22T20:13:28.682Z,100984.69
2023-02-22T20:17:08.882Z,100986.41
2023-02-22T20:20:42.217Z,100985.55
2023-02-22T20:24:19.713Z,100981.80
2023-02-22T20:28:00.884Z,100981.82
2023-02-22T20:31:32.312Z,100985.07
2023-02-22T20:35:02.119Z,100986.45
2023-02-22T20:38:33.558Z,100985.75
2023-02-22T20:42:05.013Z,100982.84
2023-02-22T20:45:37.125Z,100990.55
2023-02-22T20:49:13.532Z,100991.58
2023-02-22T20:52:46.117Z,100990.58
2023-02-22T20:56:18.496Z,100992.47
2023-02-22T20:59:49.698Z,100989.24
2023-02-22T21:03:21.458Z,100996.64
2023-02-22T21:06:51.364Z,100993.23
2023-02-22T21:10:21.698Z,100994.27
2023-02-22T21:13:51.620Z,100992.05
2023-02-22T21:17:29.350Z,100993.95
2023-02-22T21:20:58.388Z,100990.20
2023-02-22T21:24:29.724Z,100989.19
2023-02-22T21:28:02.292Z,100988.17
2023-02-22T21:31:35.532Z,100986.49
2023-02-22T21:35:03.910Z,100987.20
2023-02-22T21:38:34.276Z,100984.30
2023-02-22T21:42:02.897Z,100985.33
2023-02-22T21:45:31.213Z,100983.63
2023-02-22T21:49:06.420Z,100987.92
2023-02-22T21:52:37.736Z,100982.96
2023-02-22T21:56:10.159Z,100978.36
2023-02-22T21:59:39.821Z,100978.20
2023-02-22T22:03:11.854Z,100976.16
2023-02-22T22:06:43.393Z,100976.34
2023-02-22T22:10:18.112Z,100982.34
2023-02-22T22:13:52.719Z,100991.75
2023-02-22T22:17:23.245Z,100989.02
2023-02-22T22:20:53.891Z,100987.14
2023-02-22T22:24:23.633Z,100987.15
2023-02-22T22:27:51.586Z,100988.52
2023-02-22T22:31:24.020Z,100982.86
2023-02-22T22:34:52.484Z,100982.34
2023-02-22T22:38:21.993Z,100982.14
2023-02-22T22:41:55.271Z,100984.54
2023-02-22T22:45:28.631Z,100986.57
2023-02-22T22:48:58.609Z,100980.26
2023-02-22T22:52:33.756Z,100974.79
2023-02-22T22:56:15.690Z,100968.64
2023-02-22T22:59:48.309Z,100971.73
2023-02-22T23:03:23.317Z,100963.55
2023-02-22T23:06:54.487Z,100963.55
2023-02-22T23:10:28.679Z,100965.27
2023-02-22T23:14:04.150Z,100964.42
2023-02-22T23:17:41.798Z,100966.48
2023-02-22T23:21:10.658Z,100966.14
2023-02-22T23:24:44.843Z,100964.95
2023-02-22T23:28:16.249Z,100964.11
2023-02-22T23:31:44.168Z,100966.32
2023-02-22T23:35:14.188Z,100971.11
2023-02-22T23:38:42.693Z,100965.13
2023-02-22T23:42:10.680Z,100965.13
2023-02-22T23:45:46.268Z,100960.69
2023-02-22T23:49:17.715Z,100961.03
2023-02-22T23:52:46.500Z,100961.54
2023-02-22T23:56:15.015Z,100960.17
2023-02-22T23:59:42.181Z,100955.90
